sensor_id;sensor_type;location;lat;lon;timestamp;temperature;humidity
9177;DHT22;4623;54.310;10.112;2022-07-30T00:01:14;19.90;99.90
9177;DHT22;4623;54.310;10.112;2022-07-30T00:03:40;19.90;99.90
9177;DHT22;4623;54.310;10.112;2022-07-30T00:06:05;19.90;99.90
9177;DHT22;4623;54.310;10.112;2022-07-30T00:08:31;19.90;99.90
9177;DHT22;4623;54.310;10.112;2022-07-30T00:10:57;19.90;99.90
9177;DHT22;4623;54.310;10.112;2022-07-30T00:13:22;19.90;99.90
9177;DHT22;4623;54.310;10.112;2022-07-30T00:15:48;19.90;99.90
9177;DHT22;4623;54.310;10.112;2022-07-30T00:18:14;20.00;99.90
9177;DHT22;4623;54.310;10.112;2022-07-30T00:20:39;20.10;99.90
9177;DHT22;4623;54.310;10.112;2022-07-30T00:23:05;20.00;99.90
9177;DHT22;4623;54.310;10.112;2022-07-30T00:25:31;20.00;99.90
9177;DHT22;4623;54.310;10.112;2022-07-30T00:27:57;20.00;99.90
9177;DHT22;4623;54.310;10.112;2022-07-30T00:30:23;19.90;99.90
9177;DHT22;4623;54.310;10.112;2022-07-30T00:32:49;19.90;99.90
9177;DHT22;4623;54.310;10.112;2022-07-30T00:35:15;19.90;99.90
9177;DHT22;4623;54.310;10.112;2022-07-30T00:37:41;19.90;99.90
9177;DHT22;4623;54.310;10.112;2022-07-30T00:40:08;19.90;99.90
9177;DHT22;4623;54.310;10.112;2022-07-30T00:42:42;19.80;99.90
9177;DHT22;4623;54.310;10.112;2022-07-30T00:45:09;19.80;99.90
9177;DHT22;4623;54.310;10.112;2022-07-30T00:47:35;19.80;99.90
9177;DHT22;4623;54.310;10.112;2022-07-30T00:50:01;19.80;99.90
9177;DHT22;4623;54.310;10.112;2022-07-30T00:52:32;19.70;99.90
9177;DHT22;4623;54.310;10.112;2022-07-30T00:54:59;19.70;99.90
9177;DHT22;4623;54.310;10.112;2022-07-30T00:57:26;19.70;99.90
9177;DHT22;4623;54.310;10.112;2022-07-30T00:59:52;19.70;99.90
9177;DHT22;4623;54.310;10.112;2022-07-30T01:02:18;19.70;99.90
9177;DHT22;4623;54.310;10.112;2022-07-30T01:04:43;19.70;99.90
9177;DHT22;4623;54.310;10.112;2022-07-30T01:07:09;19.80;99.90
9177;DHT22;4623;54.310;10.112;2022-07-30T01:09:36;19.70;99.90
9177;DHT22;4623;54.310;10.112;2022-07-30T01:12:02;19.70;99.90
9177;DHT22;4623;54.310;10.112;2022-07-30T01:14:28;19.70;99.90
9177;DHT22;4623;54.310;10.112;2022-07-30T01:16:53;19.70;99.90
9177;DHT22;4623;54.310;10.112;2022-07-30T01:19:24;19.70;99.90
9177;DHT22;4623;54.310;10.112;2022-07-30T01:27:33;19.70;99.90
9177;DHT22;4623;54.310;10.112;2022-07-30T01:30:02;19.70;99.90
9177;DHT22;4623;54.310;10.112;2022-07-30T01:32:28;19.80;99.90
9177;DHT22;4623;54.310;10.112;2022-07-30T01:34:56;19.80;99.90
9177;DHT22;4623;54.310;10.112;2022-07-30T01:37:23;19.80;99.90
9177;DHT22;4623;54.310;10.112;2022-07-30T01:39:50;19.80;99.90
9177;DHT22;4623;54.310;10.112;2022-07-30T01:42:18;19.80;99.90
9177;DHT22;4623;54.310;10.112;2022-07-30T01:44:47;19.80;99.90
9177;DHT22;4623;54.310;10.112;2022-07-30T01:47:13;19.90;99.90
9177;DHT22;4623;54.310;10.112;2022-07-30T01:49:40;19.80;99.90
9177;DHT22;4623;54.310;10.112;2022-07-30T01:52:07;19.80;99.90
9177;DHT22;4623;54.310;10.112;2022-07-30T01:54:34;19.80;99.90
9177;DHT22;4623;54.310;10.112;2022-07-30T01:57:02;19.80;99.90
9177;DHT22;4623;54.310;10.112;2022-07-30T01:59:31;19.80;99.90
9177;DHT22;4623;54.310;10.112;2022-07-30T02:01:58;19.80;99.90
9177;DHT22;4623;54.310;10.112;2022-07-30T02:04:24;19.80;99.90
9177;DHT22;4623;54.310;10.112;2022-07-30T02:07:00;19.80;99.90
9177;DHT22;4623;54.310;10.112;2022-07-30T02:09:32;19.80;99.90
9177;DHT22;4623;54.310;10.112;2022-07-30T02:11:59;19.80;99.90
9177;DHT22;4623;54.310;10.112;2022-07-30T02:17:55;19.80;99.90
9177;DHT22;4623;54.310;10.112;2022-07-30T02:20:25;19.70;99.90
9177;DHT22;4623;54.310;10.112;2022-07-30T02:22:54;19.70;99.90
9177;DHT22;4623;54.310;10.112;2022-07-30T02:25:21;19.70;99.90
9177;DHT22;4623;54.310;10.112;2022-07-30T02:27:51;19.60;99.90
9177;DHT22;4623;54.310;10.112;2022-07-30T02:30:17;19.60;99.90
9177;DHT22;4623;54.310;10.112;2022-07-30T02:32:43;19.60;99.90
9177;DHT22;4623;54.310;10.112;2022-07-30T02:35:17;19.70;99.90
9177;DHT22;4623;54.310;10.112;2022-07-30T02:37:46;19.70;99.90
9177;DHT22;4623;54.310;10.112;2022-07-30T02:40:14;19.70;99.90
9177;DHT22;4623;54.310;10.112;2022-07-30T02:42:42;19.70;99.90
9177;DHT22;4623;54.310;10.112;2022-07-30T02:45:10;19.70;99.90
9177;DHT22;4623;54.310;10.112;2022-07-30T02:47:37;19.70;99.90
9177;DHT22;4623;54.310;10.112;2022-07-30T02:50:04;19.60;99.90
9177;DHT22;4623;54.310;10.112;2022-07-30T02:52:31;19.70;99.90
9177;DHT22;4623;54.310;10.112;2022-07-30T02:54:58;19.70;99.90
9177;DHT22;4623;54.310;10.112;2022-07-30T02:57:25;19.70;99.90
9177;DHT22;4623;54.310;10.112;2022-07-30T02:59:52;19.70;99.90
9177;DHT22;4623;54.310;10.112;2022-07-30T03:02:19;19.80;99.90
9177;DHT22;4623;54.310;10.112;2022-07-30T03:04:46;19.80;99.90
9177;DHT22;4623;54.310;10.112;2022-07-30T03:07:13;19.70;99.90
9177;DHT22;4623;54.310;10.112;2022-07-30T03:09:41;19.70;99.90
9177;DHT22;4623;54.310;10.112;2022-07-30T03:12:08;19.80;99.90
9177;DHT22;4623;54.310;10.112;2022-07-30T03:14:34;19.70;99.90
9177;DHT22;4623;54.310;10.112;2022-07-30T03:17:01;19.80;99.90
9177;DHT22;4623;54.310;10.112;2022-07-30T03:19:29;19.80;99.90
9177;DHT22;4623;54.310;10.112;2022-07-30T03:21:57;19.80;99.90
9177;DHT22;4623;54.310;10.112;2022-07-30T03:24:26;19.80;99.90
9177;DHT22;4623;54.310;10.112;2022-07-30T03:26:53;19.80;99.90
9177;DHT22;4623;54.310;10.112;2022-07-30T03:29:20;19.80;99.90
9177;DHT22;4623;54.310;10.112;2022-07-30T03:31:47;19.80;99.90
9177;DHT22;4623;54.310;10.112;2022-07-30T03:34:13;19.80;99.90
9177;DHT22;4623;54.310;10.112;2022-07-30T03:36:39;19.80;99.90
9177;DHT22;4623;54.310;10.112;2022-07-30T03:39:06;19.70;99.90
9177;DHT22;4623;54.310;10.112;2022-07-30T03:41:33;19.70;99.90
9177;DHT22;4623;54.310;10.112;2022-07-30T03:44:00;19.70;99.90
9177;DHT22;4623;54.310;10.112;2022-07-30T03:46:26;19.70;99.90
9177;DHT22;4623;54.310;10.112;2022-07-30T03:48:53;19.70;99.90
9177;DHT22;4623;54.310;10.112;2022-07-30T03:51:19;19.70;99.90
9177;DHT22;4623;54.310;10.112;2022-07-30T03:53:46;19.60;99.90
9177;DHT22;4623;54.310;10.112;2022-07-30T03:56:13;19.60;99.90
9177;DHT22;4623;54.310;10.112;2022-07-30T03:58:39;19.50;99.90
9177;DHT22;4623;54.310;10.112;2022-07-30T04:01:05;19.50;99.90
9177;DHT22;4623;54.310;10.112;2022-07-30T04:03:31;19.50;99.90
9177;DHT22;4623;54.310;10.112;2022-07-30T04:05:58;19.50;99.90
9177;DHT22;4623;54.310;10.112;2022-07-30T04:08:24;19.50;99.90
9177;DHT22;4623;54.310;10.112;2022-07-30T04:10:51;19.50;99.90
9177;DHT22;4623;54.310;10.112;2022-07-30T04:13:17;19.50;99.90
9177;DHT22;4623;54.310;10.112;2022-07-30T04:15:57;19.50;99.90
9177;DHT22;4623;54.310;10.112;2022-07-30T04:18:26;19.50;99.90
9177;DHT22;4623;54.310;10.112;2022-07-30T04:20:53;19.50;99.90
9177;DHT22;4623;54.310;10.112;2022-07-30T04:23:19;19.50;99.90
9177;DHT22;4623;54.310;10.112;2022-07-30T04:25:45;19.50;99.90
9177;DHT22;4623;54.310;10.112;2022-07-30T04:28:12;19.50;99.90
9177;DHT22;4623;54.310;10.112;2022-07-30T04:30:39;19.60;99.90
9177;DHT22;4623;54.310;10.112;2022-07-30T04:33:06;19.60;99.90
9177;DHT22;4623;54.310;10.112;2022-07-30T04:35:34;19.60;99.90
9177;DHT22;4623;54.310;10.112;2022-07-30T04:38:00;19.60;99.90
9177;DHT22;4623;54.310;10.112;2022-07-30T04:40:28;19.60;99.90
9177;DHT22;4623;54.310;10.112;2022-07-30T04:42:56;19.60;99.90
9177;DHT22;4623;54.310;10.112;2022-07-30T04:45:22;19.60;99.90
9177;DHT22;4623;54.310;10.112;2022-07-30T04:47:47;19.60;99.90
9177;DHT22;4623;54.310;10.112;2022-07-30T04:50:14;19.60;99.90
9177;DHT22;4623;54.310;10.112;2022-07-30T04:52:41;19.50;99.90
9177;DHT22;4623;54.310;10.112;2022-07-30T04:55:08;19.50;99.90
9177;DHT22;4623;54.310;10.112;2022-07-30T04:57:36;19.50;99.90
9177;DHT22;4623;54.310;10.112;2022-07-30T05:00:04;19.50;99.90
9177;DHT22;4623;54.310;10.112;2022-07-30T05:02:32;19.60;99.90
9177;DHT22;4623;54.310;10.112;2022-07-30T05:04:58;19.60;99.90
9177;DHT22;4623;54.310;10.112;2022-07-30T05:07:25;19.60;99.90
9177;DHT22;4623;54.310;10.112;2022-07-30T05:09:51;19.60;99.90
9177;DHT22;4623;54.310;10.112;2022-07-30T05:12:17;19.60;99.90
9177;DHT22;4623;54.310;10.112;2022-07-30T05:14:42;19.70;99.90
9177;DHT22;4623;54.310;10.112;2022-07-30T05:17:08;19.80;99.90
9177;DHT22;4623;54.310;10.112;2022-07-30T05:19:34;19.70;99.90
9177;DHT22;4623;54.310;10.112;2022-07-30T05:21:59;19.70;99.90
9177;DHT22;4623;54.310;10.112;2022-07-30T05:24:25;19.70;99.90
9177;DHT22;4623;54.310;10.112;2022-07-30T05:26:51;19.70;99.90
9177;DHT22;4623;54.310;10.112;2022-07-30T05:29:17;19.80;99.90
9177;DHT22;4623;54.310;10.112;2022-07-30T05:31:42;19.90;99.90
9177;DHT22;4623;54.310;10.112;2022-07-30T05:34:08;20.10;99.90
9177;DHT22;4623;54.310;10.112;2022-07-30T05:36:33;20.20;99.90
9177;DHT22;4623;54.310;10.112;2022-07-30T05:38:59;20.40;99.90
9177;DHT22;4623;54.310;10.112;2022-07-30T05:41:25;20.70;99.90
9177;DHT22;4623;54.310;10.112;2022-07-30T05:43:54;20.90;99.90
9177;DHT22;4623;54.310;10.112;2022-07-30T05:46:19;21.40;99.90
9177;DHT22;4623;54.310;10.112;2022-07-30T05:48:45;21.80;99.90
9177;DHT22;4623;54.310;10.112;2022-07-30T05:51:11;22.10;99.90
9177;DHT22;4623;54.310;10.112;2022-07-30T05:53:36;22.20;99.90
9177;DHT22;4623;54.310;10.112;2022-07-30T05:56:02;22.30;99.90
9177;DHT22;4623;54.310;10.112;2022-07-30T05:58:28;22.30;99.90
9177;DHT22;4623;54.310;10.112;2022-07-30T06:00:53;22.20;99.90
9177;DHT22;4623;54.310;10.112;2022-07-30T06:03:19;22.00;99.90
9177;DHT22;4623;54.310;10.112;2022-07-30T06:05:44;22.00;99.90
9177;DHT22;4623;54.310;10.112;2022-07-30T06:08:10;21.90;99.90
9177;DHT22;4623;54.310;10.112;2022-07-30T06:10:35;21.80;99.90
9177;DHT22;4623;54.310;10.112;2022-07-30T06:13:01;21.80;99.90
9177;DHT22;4623;54.310;10.112;2022-07-30T06:15:27;21.70;99.90
9177;DHT22;4623;54.310;10.112;2022-07-30T06:17:52;21.70;99.90
9177;DHT22;4623;54.310;10.112;2022-07-30T06:20:19;21.60;99.90
9177;DHT22;4623;54.310;10.112;2022-07-30T06:22:45;21.60;99.90
9177;DHT22;4623;54.310;10.112;2022-07-30T06:25:11;21.50;99.90
9177;DHT22;4623;54.310;10.112;2022-07-30T06:27:37;21.40;99.90
9177;DHT22;4623;54.310;10.112;2022-07-30T06:30:05;21.30;99.90
9177;DHT22;4623;54.310;10.112;2022-07-30T06:32:31;21.30;99.90
9177;DHT22;4623;54.310;10.112;2022-07-30T06:34:57;21.30;99.90
9177;DHT22;4623;54.310;10.112;2022-07-30T06:37:23;21.20;99.90
9177;DHT22;4623;54.310;10.112;2022-07-30T06:39:49;21.10;99.90
9177;DHT22;4623;54.310;10.112;2022-07-30T06:42:14;21.00;99.90
9177;DHT22;4623;54.310;10.112;2022-07-30T06:44:40;20.90;99.90
9177;DHT22;4623;54.310;10.112;2022-07-30T06:47:06;20.90;99.90
9177;DHT22;4623;54.310;10.112;2022-07-30T06:49:32;20.90;99.90
9177;DHT22;4623;54.310;10.112;2022-07-30T06:51:58;20.90;99.90
9177;DHT22;4623;54.310;10.112;2022-07-30T06:54:24;21.00;99.90
9177;DHT22;4623;54.310;10.112;2022-07-30T06:56:49;21.10;99.90
9177;DHT22;4623;54.310;10.112;2022-07-30T06:59:15;21.10;99.90
9177;DHT22;4623;54.310;10.112;2022-07-30T07:01:41;21.20;99.90
9177;DHT22;4623;54.310;10.112;2022-07-30T07:04:07;21.30;99.90
9177;DHT22;4623;54.310;10.112;2022-07-30T07:06:33;21.30;99.90
9177;DHT22;4623;54.310;10.112;2022-07-30T07:08:58;21.20;99.90
9177;DHT22;4623;54.310;10.112;2022-07-30T07:11:25;21.20;99.90
9177;DHT22;4623;54.310;10.112;2022-07-30T07:13:50;21.20;99.90
9177;DHT22;4623;54.310;10.112;2022-07-30T07:16:16;21.20;99.90
9177;DHT22;4623;54.310;10.112;2022-07-30T07:18:46;21.30;99.90
9177;DHT22;4623;54.310;10.112;2022-07-30T07:21:13;21.40;99.90
9177;DHT22;4623;54.310;10.112;2022-07-30T07:23:39;21.50;99.90
9177;DHT22;4623;54.310;10.112;2022-07-30T07:26:04;21.60;99.90
9177;DHT22;4623;54.310;10.112;2022-07-30T07:28:30;21.60;99.90
9177;DHT22;4623;54.310;10.112;2022-07-30T07:30:55;21.70;99.90
9177;DHT22;4623;54.310;10.112;2022-07-30T07:33:21;21.70;99.90
9177;DHT22;4623;54.310;10.112;2022-07-30T07:35:47;21.70;99.90
9177;DHT22;4623;54.310;10.112;2022-07-30T07:38:12;21.70;99.90
9177;DHT22;4623;54.310;10.112;2022-07-30T07:40:38;21.70;99.90
9177;DHT22;4623;54.310;10.112;2022-07-30T07:43:04;21.90;99.90
9177;DHT22;4623;54.310;10.112;2022-07-30T07:45:30;22.00;99.90
9177;DHT22;4623;54.310;10.112;2022-07-30T07:47:55;22.10;99.90
9177;DHT22;4623;54.310;10.112;2022-07-30T07:50:21;22.20;99.90
9177;DHT22;4623;54.310;10.112;2022-07-30T07:52:47;22.30;99.90
9177;DHT22;4623;54.310;10.112;2022-07-30T07:55:13;22.50;99.90
9177;DHT22;4623;54.310;10.112;2022-07-30T07:57:43;22.50;99.90
9177;DHT22;4623;54.310;10.112;2022-07-30T08:00:12;22.60;99.90
9177;DHT22;4623;54.310;10.112;2022-07-30T08:02:39;22.50;99.90
9177;DHT22;4623;54.310;10.112;2022-07-30T08:05:06;22.60;99.90
9177;DHT22;4623;54.310;10.112;2022-07-30T08:07:32;22.70;99.90
9177;DHT22;4623;54.310;10.112;2022-07-30T08:09:58;22.80;99.90
9177;DHT22;4623;54.310;10.112;2022-07-30T08:12:24;22.80;99.90
9177;DHT22;4623;54.310;10.112;2022-07-30T08:14:50;22.90;99.90
9177;DHT22;4623;54.310;10.112;2022-07-30T08:17:15;22.80;99.90
9177;DHT22;4623;54.310;10.112;2022-07-30T08:19:41;22.90;99.90
9177;DHT22;4623;54.310;10.112;2022-07-30T08:22:06;22.80;99.90
9177;DHT22;4623;54.310;10.112;2022-07-30T08:24:32;22.80;99.90
9177;DHT22;4623;54.310;10.112;2022-07-30T08:26:58;22.90;99.90
9177;DHT22;4623;54.310;10.112;2022-07-30T08:29:24;22.90;99.90
9177;DHT22;4623;54.310;10.112;2022-07-30T08:31:50;23.00;99.90
9177;DHT22;4623;54.310;10.112;2022-07-30T08:34:15;23.10;99.90
9177;DHT22;4623;54.310;10.112;2022-07-30T08:36:42;23.20;99.90
9177;DHT22;4623;54.310;10.112;2022-07-30T08:39:08;23.20;99.90
9177;DHT22;4623;54.310;10.112;2022-07-30T08:41:35;23.30;99.90
9177;DHT22;4623;54.310;10.112;2022-07-30T08:44:02;23.50;99.90
9177;DHT22;4623;54.310;10.112;2022-07-30T08:46:30;23.50;99.90
9177;DHT22;4623;54.310;10.112;2022-07-30T08:48:58;23.60;99.90
9177;DHT22;4623;54.310;10.112;2022-07-30T08:51:23;23.80;99.90
9177;DHT22;4623;54.310;10.112;2022-07-30T08:53:50;23.70;99.90
9177;DHT22;4623;54.310;10.112;2022-07-30T08:56:16;23.80;99.90
9177;DHT22;4623;54.310;10.112;2022-07-30T08:58:41;23.80;99.90
9177;DHT22;4623;54.310;10.112;2022-07-30T09:01:08;23.70;99.90
9177;DHT22;4623;54.310;10.112;2022-07-30T09:03:34;23.80;99.90
9177;DHT22;4623;54.310;10.112;2022-07-30T09:06:03;23.90;99.90
9177;DHT22;4623;54.310;10.112;2022-07-30T09:08:29;24.00;99.90
9177;DHT22;4623;54.310;10.112;2022-07-30T09:10:55;24.20;99.90
9177;DHT22;4623;54.310;10.112;2022-07-30T09:13:26;24.30;99.90
9177;DHT22;4623;54.310;10.112;2022-07-30T09:15:52;24.30;99.90
9177;DHT22;4623;54.310;10.112;2022-07-30T09:18:33;24.30;99.90
9177;DHT22;4623;54.310;10.112;2022-07-30T09:21:01;24.30;99.90
9177;DHT22;4623;54.310;10.112;2022-07-30T09:23:37;24.30;99.90
9177;DHT22;4623;54.310;10.112;2022-07-30T09:26:03;24.40;99.90
9177;DHT22;4623;54.310;10.112;2022-07-30T09:28:31;24.50;99.90
9177;DHT22;4623;54.310;10.112;2022-07-30T09:30:57;24.60;99.90
9177;DHT22;4623;54.310;10.112;2022-07-30T09:33:40;24.70;99.90
9177;DHT22;4623;54.310;10.112;2022-07-30T09:36:09;24.80;99.90
9177;DHT22;4623;54.310;10.112;2022-07-30T09:41:13;25.00;99.90
9177;DHT22;4623;54.310;10.112;2022-07-30T09:43:47;25.20;99.90
9177;DHT22;4623;54.310;10.112;2022-07-30T09:46:14;25.40;99.90
9177;DHT22;4623;54.310;10.112;2022-07-30T09:48:40;25.60;99.90
9177;DHT22;4623;54.310;10.112;2022-07-30T09:51:06;25.60;99.90
9177;DHT22;4623;54.310;10.112;2022-07-30T09:53:32;25.50;99.90
9177;DHT22;4623;54.310;10.112;2022-07-30T09:55:58;25.40;99.90
9177;DHT22;4623;54.310;10.112;2022-07-30T09:58:37;25.40;99.90
9177;DHT22;4623;54.310;10.112;2022-07-30T10:01:04;25.50;99.90
9177;DHT22;4623;54.310;10.112;2022-07-30T10:03:29;25.40;99.90
9177;DHT22;4623;54.310;10.112;2022-07-30T10:05:57;25.40;99.90
9177;DHT22;4623;54.310;10.112;2022-07-30T10:11:05;25.20;99.90
9177;DHT22;4623;54.310;10.112;2022-07-30T10:13:33;25.10;99.90
9177;DHT22;4623;54.310;10.112;2022-07-30T10:16:00;25.10;99.90
9177;DHT22;4623;54.310;10.112;2022-07-30T10:18:26;25.10;99.90
9177;DHT22;4623;54.310;10.112;2022-07-30T10:20:53;25.10;99.90
9177;DHT22;4623;54.310;10.112;2022-07-30T10:23:18;25.00;99.90
9177;DHT22;4623;54.310;10.112;2022-07-30T10:25:44;24.90;99.90
9177;DHT22;4623;54.310;10.112;2022-07-30T10:28:11;24.70;99.90
9177;DHT22;4623;54.310;10.112;2022-07-30T10:30:36;24.80;99.90
9177;DHT22;4623;54.310;10.112;2022-07-30T10:33:02;24.80;99.90
9177;DHT22;4623;54.310;10.112;2022-07-30T10:35:28;25.00;99.90
9177;DHT22;4623;54.310;10.112;2022-07-30T10:37:55;25.10;99.90
9177;DHT22;4623;54.310;10.112;2022-07-30T10:40:32;25.00;99.90
9177;DHT22;4623;54.310;10.112;2022-07-30T10:46:08;25.10;99.90
9177;DHT22;4623;54.310;10.112;2022-07-30T10:48:37;25.40;99.90
9177;DHT22;4623;54.310;10.112;2022-07-30T10:51:03;25.50;99.90
9177;DHT22;4623;54.310;10.112;2022-07-30T10:56:20;26.00;99.90
9177;DHT22;4623;54.310;10.112;2022-07-30T10:59:08;26.30;99.90
9177;DHT22;4623;54.310;10.112;2022-07-30T11:04:22;26.30;99.90
9177;DHT22;4623;54.310;10.112;2022-07-30T11:06:48;26.10;99.90
9177;DHT22;4623;54.310;10.112;2022-07-30T11:09:39;26.00;99.90
9177;DHT22;4623;54.310;10.112;2022-07-30T11:12:06;26.00;99.90
9177;DHT22;4623;54.310;10.112;2022-07-30T11:17:14;25.90;99.90
9177;DHT22;4623;54.310;10.112;2022-07-30T11:22:38;25.70;99.90
9177;DHT22;4623;54.310;10.112;2022-07-30T11:27:55;25.90;99.90
9177;DHT22;4623;54.310;10.112;2022-07-30T11:32:52;26.00;99.90
9177;DHT22;4623;54.310;10.112;2022-07-30T11:35:22;26.20;99.90
9177;DHT22;4623;54.310;10.112;2022-07-30T11:40:21;26.80;99.60
9177;DHT22;4623;54.310;10.112;2022-07-30T11:42:48;27.30;99.90
9177;DHT22;4623;54.310;10.112;2022-07-30T11:47:47;28.00;97.60
9177;DHT22;4623;54.310;10.112;2022-07-30T11:55:41;27.90;96.50
9177;DHT22;4623;54.310;10.112;2022-07-30T11:58:21;27.70;94.60
9177;DHT22;4623;54.310;10.112;2022-07-30T12:00:48;27.70;95.90
9177;DHT22;4623;54.310;10.112;2022-07-30T12:03:16;27.80;96.20
9177;DHT22;4623;54.310;10.112;2022-07-30T12:05:43;27.70;94.00
9177;DHT22;4623;54.310;10.112;2022-07-30T12:08:10;27.90;94.40
9177;DHT22;4623;54.310;10.112;2022-07-30T12:10:36;28.00;93.30
9177;DHT22;4623;54.310;10.112;2022-07-30T12:13:13;28.00;93.40
9177;DHT22;4623;54.310;10.112;2022-07-30T12:15:45;27.90;91.70
9177;DHT22;4623;54.310;10.112;2022-07-30T12:18:11;27.90;91.70
9177;DHT22;4623;54.310;10.112;2022-07-30T12:20:41;27.90;91.70
9177;DHT22;4623;54.310;10.112;2022-07-30T12:23:13;27.90;90.90
9177;DHT22;4623;54.310;10.112;2022-07-30T12:25:40;28.00;91.00
9177;DHT22;4623;54.310;10.112;2022-07-30T12:28:07;27.70;89.40
9177;DHT22;4623;54.310;10.112;2022-07-30T12:30:39;27.60;91.40
9177;DHT22;4623;54.310;10.112;2022-07-30T12:33:08;27.50;90.60
9177;DHT22;4623;54.310;10.112;2022-07-30T12:36:02;27.20;90.60
9177;DHT22;4623;54.310;10.112;2022-07-30T12:38:27;27.10;91.60
9177;DHT22;4623;54.310;10.112;2022-07-30T12:43:54;27.10;90.80
9177;DHT22;4623;54.310;10.112;2022-07-30T12:46:25;26.90;90.40
9177;DHT22;4623;54.310;10.112;2022-07-30T12:48:53;26.60;91.10
9177;DHT22;4623;54.310;10.112;2022-07-30T12:51:22;26.50;92.50
9177;DHT22;4623;54.310;10.112;2022-07-30T12:53:49;26.40;92.40
9177;DHT22;4623;54.310;10.112;2022-07-30T12:56:22;26.20;91.30
9177;DHT22;4623;54.310;10.112;2022-07-30T12:58:48;26.20;93.00
9177;DHT22;4623;54.310;10.112;2022-07-30T13:01:14;26.20;93.70
9177;DHT22;4623;54.310;10.112;2022-07-30T13:03:40;26.20;94.20
9177;DHT22;4623;54.310;10.112;2022-07-30T13:11:17;25.90;92.20
9177;DHT22;4623;54.310;10.112;2022-07-30T13:13:43;25.80;94.00
9177;DHT22;4623;54.310;10.112;2022-07-30T13:16:09;25.70;94.00
9177;DHT22;4623;54.310;10.112;2022-07-30T13:18:35;25.60;93.50
9177;DHT22;4623;54.310;10.112;2022-07-30T13:21:03;25.50;93.70
9177;DHT22;4623;54.310;10.112;2022-07-30T13:23:29;25.30;93.00
9177;DHT22;4623;54.310;10.112;2022-07-30T13:25:55;25.20;93.20
9177;DHT22;4623;54.310;10.112;2022-07-30T13:28:21;25.20;93.90
9177;DHT22;4623;54.310;10.112;2022-07-30T13:30:47;25.10;97.50
9177;DHT22;4623;54.310;10.112;2022-07-30T13:33:13;25.00;99.90
9177;DHT22;4623;54.310;10.112;2022-07-30T13:35:39;24.90;99.90
9177;DHT22;4623;54.310;10.112;2022-07-30T13:38:05;24.80;99.90
9177;DHT22;4623;54.310;10.112;2022-07-30T13:40:32;24.80;99.90
9177;DHT22;4623;54.310;10.112;2022-07-30T13:43:00;24.60;99.90
9177;DHT22;4623;54.310;10.112;2022-07-30T13:45:26;24.60;99.90
9177;DHT22;4623;54.310;10.112;2022-07-30T13:47:51;24.60;99.90
9177;DHT22;4623;54.310;10.112;2022-07-30T13:50:17;24.60;99.90
9177;DHT22;4623;54.310;10.112;2022-07-30T13:52:43;24.80;99.90
9177;DHT22;4623;54.310;10.112;2022-07-30T13:55:09;24.90;99.90
9177;DHT22;4623;54.310;10.112;2022-07-30T13:57:35;25.00;99.90
9177;DHT22;4623;54.310;10.112;2022-07-30T14:00:01;25.00;99.90
9177;DHT22;4623;54.310;10.112;2022-07-30T14:02:27;25.20;99.90
9177;DHT22;4623;54.310;10.112;2022-07-30T14:04:52;25.20;99.90
9177;DHT22;4623;54.310;10.112;2022-07-30T14:07:18;25.10;99.90
9177;DHT22;4623;54.310;10.112;2022-07-30T14:09:44;25.10;99.90
9177;DHT22;4623;54.310;10.112;2022-07-30T14:12:09;25.00;99.90
9177;DHT22;4623;54.310;10.112;2022-07-30T14:14:35;25.00;99.90
9177;DHT22;4623;54.310;10.112;2022-07-30T14:17:00;25.00;99.90
9177;DHT22;4623;54.310;10.112;2022-07-30T14:19:26;24.90;99.90
9177;DHT22;4623;54.310;10.112;2022-07-30T14:21:52;24.80;99.90
9177;DHT22;4623;54.310;10.112;2022-07-30T14:24:19;24.70;99.90
9177;DHT22;4623;54.310;10.112;2022-07-30T14:26:44;24.60;99.90
9177;DHT22;4623;54.310;10.112;2022-07-30T14:29:10;24.60;99.90
9177;DHT22;4623;54.310;10.112;2022-07-30T14:31:36;24.50;99.90
9177;DHT22;4623;54.310;10.112;2022-07-30T14:34:02;24.50;99.90
9177;DHT22;4623;54.310;10.112;2022-07-30T14:36:28;24.40;99.90
9177;DHT22;4623;54.310;10.112;2022-07-30T14:38:55;24.40;99.90
9177;DHT22;4623;54.310;10.112;2022-07-30T14:41:22;24.40;99.90
9177;DHT22;4623;54.310;10.112;2022-07-30T14:43:47;24.30;99.90
9177;DHT22;4623;54.310;10.112;2022-07-30T14:46:13;24.30;99.90
9177;DHT22;4623;54.310;10.112;2022-07-30T14:48:39;24.30;99.90
9177;DHT22;4623;54.310;10.112;2022-07-30T14:51:05;24.30;99.90
9177;DHT22;4623;54.310;10.112;2022-07-30T14:53:32;24.30;99.90
9177;DHT22;4623;54.310;10.112;2022-07-30T14:55:58;24.30;99.90
9177;DHT22;4623;54.310;10.112;2022-07-30T14:58:24;24.30;99.90
9177;DHT22;4623;54.310;10.112;2022-07-30T15:00:49;24.20;99.90
9177;DHT22;4623;54.310;10.112;2022-07-30T15:03:15;24.30;99.90
9177;DHT22;4623;54.310;10.112;2022-07-30T15:05:41;24.30;99.90
9177;DHT22;4623;54.310;10.112;2022-07-30T15:08:07;24.30;99.90
9177;DHT22;4623;54.310;10.112;2022-07-30T15:10:33;24.30;99.90
9177;DHT22;4623;54.310;10.112;2022-07-30T15:12:58;24.20;99.90
9177;DHT22;4623;54.310;10.112;2022-07-30T15:15:24;24.20;99.90
9177;DHT22;4623;54.310;10.112;2022-07-30T15:17:50;24.30;99.90
9177;DHT22;4623;54.310;10.112;2022-07-30T15:20:15;24.30;99.90
9177;DHT22;4623;54.310;10.112;2022-07-30T15:22:41;24.50;99.90
9177;DHT22;4623;54.310;10.112;2022-07-30T15:25:07;24.60;99.90
9177;DHT22;4623;54.310;10.112;2022-07-30T15:27:33;24.80;99.90
9177;DHT22;4623;54.310;10.112;2022-07-30T15:29:58;24.90;99.90
9177;DHT22;4623;54.310;10.112;2022-07-30T15:32:24;25.00;99.90
9177;DHT22;4623;54.310;10.112;2022-07-30T15:34:50;25.00;99.90
9177;DHT22;4623;54.310;10.112;2022-07-30T15:37:15;25.00;99.90
9177;DHT22;4623;54.310;10.112;2022-07-30T15:39:41;25.00;99.90
9177;DHT22;4623;54.310;10.112;2022-07-30T15:42:07;25.00;99.90
9177;DHT22;4623;54.310;10.112;2022-07-30T15:44:32;25.00;99.90
9177;DHT22;4623;54.310;10.112;2022-07-30T15:46:59;25.00;99.90
9177;DHT22;4623;54.310;10.112;2022-07-30T15:49:25;25.00;99.90
9177;DHT22;4623;54.310;10.112;2022-07-30T15:51:51;25.00;99.90
9177;DHT22;4623;54.310;10.112;2022-07-30T15:54:18;25.00;99.90
9177;DHT22;4623;54.310;10.112;2022-07-30T15:56:44;25.00;99.90
9177;DHT22;4623;54.310;10.112;2022-07-30T15:59:11;25.10;99.90
9177;DHT22;4623;54.310;10.112;2022-07-30T16:01:37;25.10;99.90
9177;DHT22;4623;54.310;10.112;2022-07-30T16:04:05;25.10;99.90
9177;DHT22;4623;54.310;10.112;2022-07-30T16:06:31;25.20;99.90
9177;DHT22;4623;54.310;10.112;2022-07-30T16:08:57;25.10;99.90
9177;DHT22;4623;54.310;10.112;2022-07-30T16:11:24;25.10;99.90
9177;DHT22;4623;54.310;10.112;2022-07-30T16:13:50;25.10;99.90
9177;DHT22;4623;54.310;10.112;2022-07-30T16:16:15;25.10;99.90
9177;DHT22;4623;54.310;10.112;2022-07-30T16:18:41;25.10;99.90
9177;DHT22;4623;54.310;10.112;2022-07-30T16:21:07;25.10;99.90
9177;DHT22;4623;54.310;10.112;2022-07-30T16:23:33;25.10;99.90
9177;DHT22;4623;54.310;10.112;2022-07-30T16:25:59;25.00;99.90
9177;DHT22;4623;54.310;10.112;2022-07-30T16:28:25;25.00;99.90
9177;DHT22;4623;54.310;10.112;2022-07-30T16:30:50;24.90;99.90
9177;DHT22;4623;54.310;10.112;2022-07-30T16:33:16;24.80;99.90
9177;DHT22;4623;54.310;10.112;2022-07-30T16:35:42;24.80;99.90